Time;durP1;ratioP1;P1;durP2;ratioP2;P2;SDS_P1;SDS_P2;PMS_P1;PMS_P2;Temp;Humidity;BMP_temperature;BMP_pressure;BME280_temperature;BME280_humidity;BME280_pressure;Samples;Min_cycle;Max_cycle;Signal;HPM_P1;HPM_P2
2022/10/31 03:16:46;;;;;;;8.88;4.18;;;13.40;99.90;;;;;;6173013;22;20028;-92
2022/10/31 03:36:56;;;;;;;10.35;4.35;;;12.90;99.90;;;;;;6367759;22;20078;-93
2022/10/31 03:39:23;;;;;;;8.20;3.58;;;12.80;99.90;;;;;;6307375;22;20053;-94
2022/10/31 03:41:59;;;;;;;7.53;3.25;;;12.70;99.90;;;;;;6293404;22;20006;-92
2022/10/31 03:44:30;;;;;;;8.07;3.70;;;12.60;99.90;;;;;;6271032;22;20022;-93
2022/10/31 03:46:59;;;;;;;8.15;3.50;;;12.40;99.90;;;;;;6297047;22;20015;-94
2022/10/31 03:49:25;;;;;;;8.18;3.75;;;12.30;99.90;;;;;;6295184;22;20015;-94
2022/10/31 03:52:21;;;;;;;9.00;4.13;;;12.20;99.90;;;;;;6295171;22;20018;-96
2022/10/31 03:54:55;;;;;;;8.70;4.65;;;12.10;99.90;;;;;;6296197;22;20023;-93
2022/10/31 03:57:29;;;;;;;9.32;4.57;;;12.00;99.90;;;;;;6297196;22;20455;-93
2022/10/31 04:00:18;;;;;;;9.40;4.07;;;12.00;99.90;;;;;;6297394;22;20015;-92
2022/10/31 04:02:51;;;;;;;9.65;4.25;;;11.90;99.90;;;;;;6288142;22;20037;-93
2022/10/31 04:05:19;;;;;;;9.48;4.80;;;11.80;99.90;;;;;;6287261;22;20107;-93
2022/10/31 04:07:53;;;;;;;8.63;4.00;;;11.80;99.90;;;;;;6287913;22;20516;-93
2022/10/31 04:10:20;;;;;;;9.82;3.90;;;11.70;99.90;;;;;;6287305;22;20011;-94
2022/10/31 04:12:55;;;;;;;9.98;4.65;;;11.70;99.90;;;;;;6299529;22;20022;-94
2022/10/31 04:15:35;;;;;;;10.07;4.85;;;11.70;99.90;;;;;;6287022;22;20084;-93
2022/10/31 04:18:36;;;;;;;;;;;;;;;;;;;;;
2022/10/31 04:32:01;;;;;;;9.82;4.60;;;11.50;99.90;;;;;;6285521;22;20030;-93
2022/10/31 04:34:26;;;;;;;9.02;4.22;;;11.40;99.90;;;;;;6295285;22;20032;-92
2022/10/31 04:36:52;;;;;;;10.20;4.27;;;11.40;99.90;;;;;;6298459;22;20015;-93
2022/10/31 04:39:18;;;;;;;9.97;4.30;;;11.40;99.90;;;;;;6296772;22;20023;-93
2022/10/31 04:45:12;;;;;;;8.10;3.90;;;11.40;99.90;;;;;;6328551;22;20026;-96
2022/10/31 04:47:38;;;;;;;11.77;4.90;;;11.50;99.90;;;;;;6287044;22;20264;-93
2022/10/31 04:50:04;;;;;;;8.73;4.00;;;11.50;99.90;;;;;;6286357;22;20023;-95
2022/10/31 04:52:30;;;;;;;8.88;3.92;;;11.50;99.90;;;;;;6287154;22;20501;-94
2022/10/31 04:54:58;;;;;;;8.53;4.07;;;11.50;99.90;;;;;;6261828;22;20014;-93
2022/10/31 04:57:29;;;;;;;9.65;4.00;;;11.50;99.90;;;;;;6261492;22;20094;-93
2022/10/31 04:59:54;;;;;;;9.02;3.95;;;11.50;99.90;;;;;;6261447;22;20018;-95
2022/10/31 05:02:27;;;;;;;8.67;4.10;;;11.50;99.90;;;;;;6286610;22;20097;-94
2022/10/31 05:05:06;;;;;;;10.65;4.80;;;11.50;99.90;;;;;;6286435;22;20253;-95
2022/10/31 05:07:31;;;;;;;8.60;3.97;;;11.50;99.90;;;;;;6295699;22;20101;-94
2022/10/31 05:09:57;;;;;;;9.10;4.60;;;11.50;99.90;;;;;;6296735;22;20011;-93
2022/10/31 05:12:23;;;;;;;9.67;4.63;;;11.50;99.90;;;;;;6298691;22;20034;-92
2022/10/31 05:14:48;;;;;;;9.33;4.00;;;11.60;99.90;;;;;;6271882;22;20019;-95
2022/10/31 05:17:14;;;;;;;10.30;4.27;;;11.60;99.90;;;;;;6273992;22;19999;-96
2022/10/31 05:19:40;;;;;;;9.97;4.70;;;11.60;99.90;;;;;;6299759;22;20019;-93
2022/10/31 05:22:08;;;;;;;8.33;3.73;;;11.60;99.90;;;;;;6294602;22;20017;-94
2022/10/31 05:24:41;;;;;;;8.43;3.80;;;11.70;99.90;;;;;;6261001;22;20014;-93
2022/10/31 05:27:06;;;;;;;9.00;3.80;;;11.70;99.90;;;;;;6286386;22;20432;-94
2022/10/31 05:29:33;;;;;;;10.33;3.70;;;11.70;99.90;;;;;;6286860;22;20018;-93
2022/10/31 05:32:01;;;;;;;9.85;4.60;;;11.70;99.90;;;;;;6286631;22;20260;-94
2022/10/31 05:34:30;;;;;;;9.13;4.53;;;11.70;99.90;;;;;;6261108;22;20022;-94
2022/10/31 05:37:05;;;;;;;9.68;4.68;;;11.70;99.90;;;;;;6287725;22;20108;-93
2022/10/31 05:39:33;;;;;;;10.18;4.78;;;11.60;99.90;;;;;;6257755;22;20009;-92
2022/10/31 06:36:43;;;;;;;9.48;5.13;;;11.50;99.90;;;;;;6341589;22;20462;-94
2022/10/31 06:39:12;;;;;;;10.25;5.90;;;11.50;99.90;;;;;;6288067;22;20451;-94
2022/10/31 14:29:51;;;;;;;6.28;3.10;;;15.00;99.90;;;;;;6200888;22;20115;-94
2022/10/31 14:32:43;;;;;;;6.40;2.90;;;14.90;99.90;;;;;;6188092;23;20021;-93
2022/10/31 14:35:15;;;;;;;7.78;2.78;;;14.90;99.90;;;;;;6186969;23;20073;-92
2022/10/31 14:56:29;;;;;;;8.05;3.33;;;14.70;99.90;;;;;;6182411;22;20079;-91
2022/10/31 15:02:29;;;;;;;6.93;3.30;;;14.70;99.90;;;;;;6229173;22;20019;-92
2022/10/31 15:13:21;;;;;;;5.28;2.50;;;14.60;99.90;;;;;;6341064;22;20023;-94
2022/10/31 15:15:49;;;;;;;7.18;3.20;;;14.60;99.90;;;;;;6287853;22;20025;-94
2022/10/31 15:18:21;;;;;;;9.48;2.95;;;14.50;99.90;;;;;;6289175;22;20015;-95
2022/10/31 15:28:33;;;;;;;7.63;2.97;;;14.50;99.90;;;;;;6347280;22;20019;-93
2022/10/31 15:31:02;;;;;;;8.88;3.75;;;14.40;99.90;;;;;;6291448;22;20098;-95
2022/10/31 15:33:41;;;;;;;7.72;3.15;;;14.40;99.90;;;;;;6292303;22;20011;-94
2022/10/31 15:37:24;;;;;;;7.88;3.10;;;14.30;99.90;;;;;;6288548;22;20026;-93
2022/10/31 15:39:48;;;;;;;;;;;14.30;99.90;;;;;;6169067;22;20029;-93
2022/10/31 15:42:22;;;;;;;8.85;3.55;;;14.30;99.90;;;;;;6288200;22;19915;-93
2022/10/31 15:50:00;;;;;;;10.90;4.53;;;14.10;99.90;;;;;;6339324;22;20064;-93
2022/10/31 16:10:40;;;;;;;9.52;4.00;;;14.10;99.90;;;;;;6340290;22;20022;-91
2022/10/31 16:13:08;;;;;;;11.10;5.07;;;14.10;99.90;;;;;;6286874;22;20022;-92
2022/10/31 16:15:35;;;;;;;9.05;4.72;;;14.00;99.90;;;;;;6285490;22;20014;-91
2022/10/31 16:18:28;;;;;;;9.52;4.78;;;14.10;99.90;;;;;;6287035;22;20448;-91
2022/10/31 16:20:56;;;;;;;10.02;4.72;;;14.10;99.90;;;;;;6269364;22;20011;-91
2022/10/31 16:23:26;;;;;;;11.80;4.53;;;14.10;99.90;;;;;;6287088;22;20088;-91
2022/10/31 16:26:27;;;;;;;9.07;4.68;;;14.00;99.90;;;;;;6286032;22;20503;-91
2022/10/31 16:28:55;;;;;;;11.07;5.43;;;14.00;99.90;;;;;;6286901;22;20030;-91
2022/10/31 16:31:36;;;;;;;8.82;4.40;;;14.00;99.90;;;;;;6286799;22;20103;-90
2022/10/31 16:34:15;;;;;;;8.52;4.40;;;14.00;99.90;;;;;;6287241;22;20022;-91
2022/10/31 16:36:41;;;;;;;10.35;5.25;;;14.00;99.90;;;;;;6286598;22;20044;-91
2022/10/31 16:39:10;;;;;;;10.75;4.13;;;14.00;99.90;;;;;;6286870;22;20026;-91
2022/10/31 16:41:44;;;;;;;8.98;4.03;;;14.00;99.90;;;;;;6286848;22;20015;-93
2022/10/31 16:44:15;;;;;;;9.23;4.95;;;14.00;99.90;;;;;;6287004;22;20224;-91
2022/10/31 16:46:43;;;;;;;9.75;4.75;;;14.00;99.90;;;;;;6311497;22;20040;-91
2022/10/31 17:18:55;;;;;;;10.18;4.40;;;13.70;99.90;;;;;;6140879;22;20051;-91
2022/10/31 17:21:26;;;;;;;10.27;4.50;;;13.70;99.90;;;;;;6173617;22;20025;-91
2022/10/31 17:23:53;;;;;;;9.45;4.65;;;13.70;99.90;;;;;;6185796;23;20346;-92
2022/10/31 17:27:23;;;;;;;9.25;4.18;;;13.70;99.90;;;;;;6185530;23;20103;-91
2022/10/31 17:29:48;;;;;;;11.03;5.47;;;13.60;99.90;;;;;;6210282;23;20323;-90
2022/10/31 20:24:07;;;;;;;20.65;9.95;;;13.10;99.90;;;;;;6300168;22;20344;-90
2022/10/31 20:45:32;;;;;;;25.88;11.85;;;13.20;99.90;;;;;;6339722;22;20019;-91
2022/10/31 20:48:47;;;;;;;24.25;12.15;;;13.20;99.90;;;;;;6286990;22;20015;-91
2022/10/31 20:51:20;;;;;;;24.92;11.68;;;13.20;99.90;;;;;;6286001;22;20011;-90
2022/10/31 20:53:47;;;;;;;20.38;10.38;;;13.10;99.90;;;;;;6285753;22;20054;-93
2022/10/31 20:58:48;;;;;;;22.00;10.55;;;13.10;99.90;;;;;;6339940;22;20018;-91
2022/10/31 21:01:18;;;;;;;24.45;10.63;;;13.10;99.90;;;;;;6261493;22;20050;-90
2022/10/31 21:03:44;;;;;;;18.58;10.35;;;13.00;99.90;;;;;;6286918;22;20046;-90
2022/10/31 21:06:11;;;;;;;23.95;10.82;;;13.00;99.90;;;;;;6313027;22;20022;-90
2022/10/31 21:09:16;;;;;;;;;;;13.00;99.90;;;;;;6287395;22;20015;-91
2022/10/31 21:11:42;;;;;;;20.88;10.13;;;12.90;99.90;;;;;;6286050;22;19919;-89
2022/10/31 21:14:09;;;;;;;22.48;9.55;;;12.90;99.90;;;;;;6260947;22;20055;-91
2022/10/31 21:16:35;;;;;;;20.73;10.57;;;12.90;99.90;;;;;;6260834;22;20022;-91
2022/10/31 21:20:14;;;;;;;21.05;10.55;;;12.80;99.90;;;;;;6312526;22;20015;-92
2022/10/31 21:23:03;;;;;;;18.40;9.57;;;12.80;99.90;;;;;;6268455;22;20103;-89
2022/10/31 21:44:47;;;;;;;19.33;9.18;;;12.80;99.90;;;;;;6314631;22;20024;-88
2022/10/31 21:47:24;;;;;;;20.45;9.77;;;12.80;99.90;;;;;;6130454;23;20073;-90
2022/10/31 21:50:29;;;;;;;;;;;;;;;;;;;;;
2022/10/31 21:56:23;;;;;;;20.98;9.45;;;12.80;99.90;;;;;;6212640;22;20034;-93
2022/10/31 21:58:59;;;;;;;19.92;8.95;;;12.70;99.90;;;;;;6302694;22;20019;-94
2022/10/31 22:01:27;;;;;;;18.88;8.95;;;12.70;99.90;;;;;;6286313;22;20061;-92
2022/10/31 22:03:53;;;;;;;21.33;9.20;;;12.70;99.90;;;;;;6286313;22;20021;-95
2022/10/31 22:06:20;;;;;;;19.75;9.23;;;12.70;99.90;;;;;;6286472;22;20015;-91
2022/10/31 22:08:46;;;;;;;20.73;10.10;;;12.70;99.90;;;;;;6286485;22;20025;-95
2022/10/31 22:11:15;;;;;;;21.63;9.48;;;12.80;99.90;;;;;;6286324;22;20015;-91
2022/10/31 22:13:45;;;;;;;19.23;9.35;;;12.80;99.90;;;;;;6286248;22;20019;-93
2022/10/31 22:16:13;;;;;;;18.42;9.20;;;12.80;99.90;;;;;;6286595;22;20015;-93
2022/10/31 22:18:40;;;;;;;19.70;8.52;;;12.80;99.90;;;;;;6286642;22;20309;-91
2022/10/31 22:21:14;;;;;;;20.17;8.35;;;12.90;99.90;;;;;;6285536;22;20026;-94
2022/10/31 22:23:40;;;;;;;16.30;8.73;;;12.90;99.90;;;;;;6284606;22;20019;-93
2022/10/31 22:26:13;;;;;;;16.98;8.40;;;12.90;99.90;;;;;;6284135;22;20332;-94
2022/10/31 22:28:40;;;;;;;16.33;7.50;;;12.90;99.90;;;;;;6284024;22;20046;-93
2022/10/31 22:31:10;;;;;;;15.68;7.43;;;12.90;99.90;;;;;;6285448;22;20015;-93
2022/10/31 22:33:37;;;;;;;14.13;6.97;;;12.90;99.90;;;;;;6286779;22;20011;-92
2022/10/31 22:36:08;;;;;;;15.82;7.80;;;12.90;99.90;;;;;;6303675;22;20018;-90
2022/10/31 22:38:41;;;;;;;16.83;7.90;;;13.00;99.90;;;;;;6309411;22;20015;-92
2022/10/31 22:41:09;;;;;;;15.50;7.10;;;13.00;99.90;;;;;;6294988;22;20460;-92
2022/10/31 22:43:36;;;;;;;15.93;6.97;;;13.00;99.90;;;;;;6311900;22;20089;-93
2022/10/31 22:46:05;;;;;;;12.93;6.18;;;13.00;99.90;;;;;;6287742;22;20466;-91
2022/10/31 22:48:42;;;;;;;13.23;6.30;;;13.00;99.90;;;;;;6288064;22;20011;-92
2022/10/31 22:51:09;;;;;;;;;;;13.00;99.90;;;;;;6288436;22;20098;-92
2022/10/31 22:53:36;;;;;;;13.00;7.00;;;13.00;99.90;;;;;;6287539;22;19914;-92
2022/10/31 22:56:05;;;;;;;12.50;6.30;;;13.00;99.90;;;;;;6254947;22;20096;-93
2022/10/31 23:07:19;;;;;;;11.98;6.18;;;13.00;99.90;;;;;;6136708;23;20030;-90
2022/10/31 23:09:49;;;;;;;14.80;7.80;;;13.00;99.90;;;;;;6102993;23;20021;-91
2022/10/31 23:29:56;;;;;;;12.73;5.43;;;13.00;99.90;;;;;;6210346;22;20023;-93
2022/10/31 23:48:06;;;;;;;11.18;5.80;;;12.90;99.90;;;;;;6340235;22;20425;-93
2022/10/31 23:50:33;;;;;;;11.65;5.45;;;12.90;99.90;;;;;;6287371;22;20023;-91
2022/10/31 23:52:59;;;;;;;10.02;4.82;;;12.90;99.90;;;;;;6286817;22;20014;-91
2022/10/31 23:55:30;;;;;;;11.70;4.90;;;12.90;99.90;;;;;;6261548;22;20018;-92
2022/10/31 23:57:56;;;;;;;13.00;5.30;;;13.00;99.90;;;;;;6262138;22;20276;-91
